Terminal Aerodrome Forecast
Issued by NWS

Home | Current Version | Previous Version | Text Only | Print | Product List | Glossary On
Versions: 1 2 3 4 5 6 7 8 9 10 11 12 13 14 15 16
000
FTUS45 KRIW 022329
TAFRKS
TAF
KRKS 022329Z 0300/0324 VRB10G18KT P6SM VCTS SCT070CB BKN120
     FM030200 06011KT P6SM SCT110
     FM031600 VRB06KT P6SM FEW120
     FM032100 29010KT P6SM SCT100=

USA.gov is the U.S. government's official web portal to all federal, state and local government web resources and services.